sensor_id;sensor_type;location;lat;lon;timestamp;temperature;humidity
32476;DHT22;18929;48.008;10.882;2023-05-02T00:00:06;12.00;99.90
32476;DHT22;18929;48.008;10.882;2023-05-02T00:02:35;12.20;99.90
32476;DHT22;18929;48.008;10.882;2023-05-02T00:05:02;12.20;99.90
32476;DHT22;18929;48.008;10.882;2023-05-02T00:07:29;12.30;99.90
32476;DHT22;18929;48.008;10.882;2023-05-02T00:09:56;12.20;99.90
32476;DHT22;18929;48.008;10.882;2023-05-02T00:12:23;12.20;99.90
32476;DHT22;18929;48.008;10.882;2023-05-02T00:14:50;12.30;99.90
32476;DHT22;18929;48.008;10.882;2023-05-02T00:17:17;12.20;99.90
32476;DHT22;18929;48.008;10.882;2023-05-02T00:19:45;12.10;99.90
32476;DHT22;18929;48.008;10.882;2023-05-02T00:22:12;12.10;99.90
32476;DHT22;18929;48.008;10.882;2023-05-02T00:24:39;12.30;99.90
32476;DHT22;18929;48.008;10.882;2023-05-02T00:27:06;12.40;99.90
32476;DHT22;18929;48.008;10.882;2023-05-02T00:29:33;12.30;99.90
32476;DHT22;18929;48.008;10.882;2023-05-02T00:32:01;12.30;99.90
32476;DHT22;18929;48.008;10.882;2023-05-02T00:34:28;12.30;99.90
32476;DHT22;18929;48.008;10.882;2023-05-02T00:36:56;12.30;99.90
32476;DHT22;18929;48.008;10.882;2023-05-02T00:39:23;12.20;99.90
32476;DHT22;18929;48.008;10.882;2023-05-02T00:41:55;12.10;99.90
32476;DHT22;18929;48.008;10.882;2023-05-02T00:44:21;12.20;99.90
32476;DHT22;18929;48.008;10.882;2023-05-02T00:46:48;12.20;99.90
32476;DHT22;18929;48.008;10.882;2023-05-02T00:49:15;12.20;99.90
32476;DHT22;18929;48.008;10.882;2023-05-02T00:51:42;11.90;99.90
32476;DHT22;18929;48.008;10.882;2023-05-02T00:54:11;11.90;99.90
32476;DHT22;18929;48.008;10.882;2023-05-02T00:56:38;12.30;99.90
32476;DHT22;18929;48.008;10.882;2023-05-02T00:59:05;11.90;99.90
32476;DHT22;18929;48.008;10.882;2023-05-02T01:01:35;12.30;99.90
32476;DHT22;18929;48.008;10.882;2023-05-02T01:04:08;12.40;99.90
32476;DHT22;18929;48.008;10.882;2023-05-02T01:06:38;12.10;99.90
32476;DHT22;18929;48.008;10.882;2023-05-02T01:09:15;12.40;99.90
32476;DHT22;18929;48.008;10.882;2023-05-02T01:11:43;12.50;99.90
32476;DHT22;18929;48.008;10.882;2023-05-02T01:14:14;12.40;99.90
32476;DHT22;18929;48.008;10.882;2023-05-02T01:16:42;12.50;99.90
32476;DHT22;18929;48.008;10.882;2023-05-02T01:19:11;12.40;99.90
32476;DHT22;18929;48.008;10.882;2023-05-02T01:21:39;12.50;99.90
32476;DHT22;18929;48.008;10.882;2023-05-02T01:24:09;12.40;99.90
32476;DHT22;18929;48.008;10.882;2023-05-02T01:26:42;12.60;99.90
32476;DHT22;18929;48.008;10.882;2023-05-02T01:29:13;12.60;99.90
32476;DHT22;18929;48.008;10.882;2023-05-02T01:31:41;12.50;99.90
32476;DHT22;18929;48.008;10.882;2023-05-02T01:34:09;12.60;99.90
32476;DHT22;18929;48.008;10.882;2023-05-02T01:36:36;12.60;99.90
32476;DHT22;18929;48.008;10.882;2023-05-02T01:39:04;12.60;99.90
32476;DHT22;18929;48.008;10.882;2023-05-02T01:41:32;12.40;99.90
32476;DHT22;18929;48.008;10.882;2023-05-02T01:44:01;12.60;99.90
32476;DHT22;18929;48.008;10.882;2023-05-02T01:46:30;12.50;99.90
32476;DHT22;18929;48.008;10.882;2023-05-02T01:48:59;12.50;99.90
32476;DHT22;18929;48.008;10.882;2023-05-02T01:51:29;12.30;99.90
32476;DHT22;18929;48.008;10.882;2023-05-02T01:53:57;12.30;99.90
32476;DHT22;18929;48.008;10.882;2023-05-02T01:56:24;12.60;99.90
32476;DHT22;18929;48.008;10.882;2023-05-02T01:58:51;12.50;99.90
32476;DHT22;18929;48.008;10.882;2023-05-02T02:01:19;12.50;99.90
32476;DHT22;18929;48.008;10.882;2023-05-02T02:03:48;12.50;99.90
32476;DHT22;18929;48.008;10.882;2023-05-02T02:06:15;12.30;99.90
32476;DHT22;18929;48.008;10.882;2023-05-02T02:08:43;12.10;99.90
32476;DHT22;18929;48.008;10.882;2023-05-02T02:11:10;12.20;99.90
32476;DHT22;18929;48.008;10.882;2023-05-02T02:13:40;11.90;99.90
32476;DHT22;18929;48.008;10.882;2023-05-02T02:16:09;12.10;99.90
32476;DHT22;18929;48.008;10.882;2023-05-02T02:18:36;11.60;99.90
32476;DHT22;18929;48.008;10.882;2023-05-02T02:21:07;11.70;99.90
32476;DHT22;18929;48.008;10.882;2023-05-02T02:23:34;11.90;99.90
32476;DHT22;18929;48.008;10.882;2023-05-02T02:26:02;12.10;99.90
32476;DHT22;18929;48.008;10.882;2023-05-02T02:28:30;11.80;99.90
32476;DHT22;18929;48.008;10.882;2023-05-02T02:30:57;11.90;99.90
32476;DHT22;18929;48.008;10.882;2023-05-02T02:33:24;11.90;99.90
32476;DHT22;18929;48.008;10.882;2023-05-02T02:35:56;11.60;99.90
32476;DHT22;18929;48.008;10.882;2023-05-02T02:38:28;12.00;99.90
32476;DHT22;18929;48.008;10.882;2023-05-02T02:40:59;12.10;99.90
32476;DHT22;18929;48.008;10.882;2023-05-02T02:43:29;12.00;99.90
32476;DHT22;18929;48.008;10.882;2023-05-02T02:46:01;12.30;99.90
32476;DHT22;18929;48.008;10.882;2023-05-02T02:48:34;11.90;99.90
32476;DHT22;18929;48.008;10.882;2023-05-02T02:51:06;12.20;99.90
32476;DHT22;18929;48.008;10.882;2023-05-02T02:53:42;11.70;99.90
32476;DHT22;18929;48.008;10.882;2023-05-02T02:56:12;11.80;99.90
32476;DHT22;18929;48.008;10.882;2023-05-02T02:58:42;11.40;99.90
32476;DHT22;18929;48.008;10.882;2023-05-02T03:01:14;11.70;99.90
32476;DHT22;18929;48.008;10.882;2023-05-02T03:03:41;11.90;99.90
32476;DHT22;18929;48.008;10.882;2023-05-02T03:06:08;12.10;99.90
32476;DHT22;18929;48.008;10.882;2023-05-02T03:08:38;12.10;99.90
32476;DHT22;18929;48.008;10.882;2023-05-02T03:11:07;12.20;99.90
32476;DHT22;18929;48.008;10.882;2023-05-02T03:13:34;12.20;99.90
32476;DHT22;18929;48.008;10.882;2023-05-02T03:18:47;12.00;99.90
32476;DHT22;18929;48.008;10.882;2023-05-02T03:21:14;11.90;99.90
32476;DHT22;18929;48.008;10.882;2023-05-02T03:23:41;12.10;99.90
32476;DHT22;18929;48.008;10.882;2023-05-02T03:26:09;12.00;99.90
32476;DHT22;18929;48.008;10.882;2023-05-02T03:28:36;11.90;99.90
32476;DHT22;18929;48.008;10.882;2023-05-02T03:31:03;11.90;99.90
32476;DHT22;18929;48.008;10.882;2023-05-02T03:33:29;11.90;99.90
32476;DHT22;18929;48.008;10.882;2023-05-02T03:35:57;11.90;99.90
32476;DHT22;18929;48.008;10.882;2023-05-02T03:38:23;11.80;99.90
32476;DHT22;18929;48.008;10.882;2023-05-02T03:40:51;11.90;99.90
32476;DHT22;18929;48.008;10.882;2023-05-02T03:43:19;11.90;99.90
32476;DHT22;18929;48.008;10.882;2023-05-02T03:45:46;11.90;99.90
32476;DHT22;18929;48.008;10.882;2023-05-02T03:48:13;11.90;99.90
32476;DHT22;18929;48.008;10.882;2023-05-02T03:50:40;11.90;99.90
32476;DHT22;18929;48.008;10.882;2023-05-02T03:53:08;11.80;99.90
32476;DHT22;18929;48.008;10.882;2023-05-02T03:55:37;11.90;99.90
32476;DHT22;18929;48.008;10.882;2023-05-02T03:58:04;11.90;99.90
32476;DHT22;18929;48.008;10.882;2023-05-02T04:00:32;11.90;99.90
32476;DHT22;18929;48.008;10.882;2023-05-02T04:02:59;11.90;99.90
32476;DHT22;18929;48.008;10.882;2023-05-02T04:05:26;11.90;99.90
32476;DHT22;18929;48.008;10.882;2023-05-02T04:07:53;11.90;99.90
32476;DHT22;18929;48.008;10.882;2023-05-02T04:10:20;11.80;99.90
32476;DHT22;18929;48.008;10.882;2023-05-02T04:12:46;11.90;99.90
32476;DHT22;18929;48.008;10.882;2023-05-02T04:15:13;11.90;99.90
32476;DHT22;18929;48.008;10.882;2023-05-02T04:17:42;11.90;99.90
32476;DHT22;18929;48.008;10.882;2023-05-02T04:20:09;11.90;99.90
32476;DHT22;18929;48.008;10.882;2023-05-02T04:22:36;11.80;99.90
32476;DHT22;18929;48.008;10.882;2023-05-02T04:25:04;11.80;99.90
32476;DHT22;18929;48.008;10.882;2023-05-02T04:27:32;11.90;99.90
32476;DHT22;18929;48.008;10.882;2023-05-02T04:29:59;11.80;99.90
32476;DHT22;18929;48.008;10.882;2023-05-02T04:32:25;11.60;99.90
32476;DHT22;18929;48.008;10.882;2023-05-02T04:34:53;11.70;99.90
32476;DHT22;18929;48.008;10.882;2023-05-02T04:37:20;11.60;99.90
32476;DHT22;18929;48.008;10.882;2023-05-02T04:39:47;11.60;99.90
32476;DHT22;18929;48.008;10.882;2023-05-02T04:42:14;11.60;99.90
32476;DHT22;18929;48.008;10.882;2023-05-02T04:44:41;11.70;99.90
32476;DHT22;18929;48.008;10.882;2023-05-02T04:47:08;11.90;99.90
32476;DHT22;18929;48.008;10.882;2023-05-02T04:49:34;11.90;99.90
32476;DHT22;18929;48.008;10.882;2023-05-02T04:52:03;11.80;99.90
32476;DHT22;18929;48.008;10.882;2023-05-02T04:54:31;11.90;99.90
32476;DHT22;18929;48.008;10.882;2023-05-02T04:56:58;11.90;99.90
32476;DHT22;18929;48.008;10.882;2023-05-02T04:59:27;11.40;99.90
32476;DHT22;18929;48.008;10.882;2023-05-02T05:01:54;11.50;99.90
32476;DHT22;18929;48.008;10.882;2023-05-02T05:04:21;11.80;99.90
32476;DHT22;18929;48.008;10.882;2023-05-02T05:06:48;11.40;99.90
32476;DHT22;18929;48.008;10.882;2023-05-02T05:09:16;11.70;99.90
32476;DHT22;18929;48.008;10.882;2023-05-02T05:11:43;11.80;99.90
32476;DHT22;18929;48.008;10.882;2023-05-02T05:14:10;12.00;99.90
32476;DHT22;18929;48.008;10.882;2023-05-02T05:16:37;12.00;99.90
32476;DHT22;18929;48.008;10.882;2023-05-02T05:19:04;12.10;99.90
32476;DHT22;18929;48.008;10.882;2023-05-02T05:21:31;12.10;99.90
32476;DHT22;18929;48.008;10.882;2023-05-02T05:23:58;12.00;99.90
32476;DHT22;18929;48.008;10.882;2023-05-02T05:26:26;12.00;99.90
32476;DHT22;18929;48.008;10.882;2023-05-02T05:28:53;12.00;99.90
32476;DHT22;18929;48.008;10.882;2023-05-02T05:31:20;12.10;99.90
32476;DHT22;18929;48.008;10.882;2023-05-02T05:33:48;12.20;99.90
32476;DHT22;18929;48.008;10.882;2023-05-02T05:36:15;12.30;99.90
32476;DHT22;18929;48.008;10.882;2023-05-02T10:29:09;12.80;99.90
32476;DHT22;18929;48.008;10.882;2023-05-02T10:31:37;12.90;99.90
32476;DHT22;18929;48.008;10.882;2023-05-02T10:34:05;13.00;99.90
32476;DHT22;18929;48.008;10.882;2023-05-02T10:36:35;13.20;99.90
32476;DHT22;18929;48.008;10.882;2023-05-02T10:39:01;13.20;99.90
32476;DHT22;18929;48.008;10.882;2023-05-02T10:41:29;13.50;99.90
32476;DHT22;18929;48.008;10.882;2023-05-02T10:43:57;13.20;99.90
32476;DHT22;18929;48.008;10.882;2023-05-02T10:46:29;13.50;99.90
32476;DHT22;18929;48.008;10.882;2023-05-02T10:49:00;13.90;99.90
32476;DHT22;18929;48.008;10.882;2023-05-02T10:51:29;13.50;99.90
32476;DHT22;18929;48.008;10.882;2023-05-02T10:59:25;13.50;99.90
32476;DHT22;18929;48.008;10.882;2023-05-02T11:01:53;13.20;99.90
32476;DHT22;18929;48.008;10.882;2023-05-02T11:04:20;12.90;99.90
32476;DHT22;18929;48.008;10.882;2023-05-02T11:09:47;13.40;99.90
32476;DHT22;18929;48.008;10.882;2023-05-02T11:14:55;14.40;99.90
32476;DHT22;18929;48.008;10.882;2023-05-02T11:17:24;14.60;99.90
32476;DHT22;18929;48.008;10.882;2023-05-02T11:22:36;14.70;99.90
32476;DHT22;18929;48.008;10.882;2023-05-02T11:25:04;14.40;99.90
32476;DHT22;18929;48.008;10.882;2023-05-02T11:27:37;14.60;99.90
32476;DHT22;18929;48.008;10.882;2023-05-02T11:30:04;14.80;99.90
32476;DHT22;18929;48.008;10.882;2023-05-02T11:35:22;15.20;99.90
32476;DHT22;18929;48.008;10.882;2023-05-02T11:37:51;14.90;99.90
32476;DHT22;18929;48.008;10.882;2023-05-02T11:40:18;14.00;99.90
32476;DHT22;18929;48.008;10.882;2023-05-02T11:42:45;13.80;99.90
32476;DHT22;18929;48.008;10.882;2023-05-02T11:45:13;13.40;99.90
32476;DHT22;18929;48.008;10.882;2023-05-02T11:47:40;13.30;99.90
32476;DHT22;18929;48.008;10.882;2023-05-02T11:50:07;13.10;99.90
32476;DHT22;18929;48.008;10.882;2023-05-02T11:52:37;13.10;99.90
32476;DHT22;18929;48.008;10.882;2023-05-02T11:55:04;13.00;99.90
32476;DHT22;18929;48.008;10.882;2023-05-02T11:57:33;12.30;99.90
32476;DHT22;18929;48.008;10.882;2023-05-02T12:00:00;12.80;99.90
32476;DHT22;18929;48.008;10.882;2023-05-02T12:02:34;13.20;99.90
32476;DHT22;18929;48.008;10.882;2023-05-02T12:05:01;13.50;99.90
32476;DHT22;18929;48.008;10.882;2023-05-02T12:07:33;13.60;99.90
32476;DHT22;18929;48.008;10.882;2023-05-02T12:10:02;13.50;99.90
32476;DHT22;18929;48.008;10.882;2023-05-02T12:12:29;13.60;99.90
32476;DHT22;18929;48.008;10.882;2023-05-02T12:14:56;13.20;99.90
32476;DHT22;18929;48.008;10.882;2023-05-02T12:17:22;13.40;99.90
32476;DHT22;18929;48.008;10.882;2023-05-02T12:19:50;13.00;99.90
32476;DHT22;18929;48.008;10.882;2023-05-02T12:22:17;12.80;99.90
32476;DHT22;18929;48.008;10.882;2023-05-02T12:24:43;12.80;99.90
32476;DHT22;18929;48.008;10.882;2023-05-02T12:27:12;12.90;99.90
32476;DHT22;18929;48.008;10.882;2023-05-02T12:29:40;12.80;99.90
32476;DHT22;18929;48.008;10.882;2023-05-02T12:32:14;12.70;99.90
32476;DHT22;18929;48.008;10.882;2023-05-02T12:34:41;13.00;99.90
32476;DHT22;18929;48.008;10.882;2023-05-02T12:37:08;13.20;99.90
32476;DHT22;18929;48.008;10.882;2023-05-02T12:39:36;13.60;99.90
32476;DHT22;18929;48.008;10.882;2023-05-02T12:42:09;14.00;99.90
32476;DHT22;18929;48.008;10.882;2023-05-02T12:44:38;14.20;99.90
32476;DHT22;18929;48.008;10.882;2023-05-02T12:47:06;14.40;99.90
32476;DHT22;18929;48.008;10.882;2023-05-02T12:49:46;14.60;99.90
32476;DHT22;18929;48.008;10.882;2023-05-02T12:52:13;14.40;99.90
32476;DHT22;18929;48.008;10.882;2023-05-02T12:54:40;14.30;99.90
32476;DHT22;18929;48.008;10.882;2023-05-02T12:57:07;14.20;99.90
32476;DHT22;18929;48.008;10.882;2023-05-02T12:59:34;14.20;99.90
32476;DHT22;18929;48.008;10.882;2023-05-02T13:02:02;14.40;99.90
32476;DHT22;18929;48.008;10.882;2023-05-02T13:04:32;14.50;99.90
32476;DHT22;18929;48.008;10.882;2023-05-02T13:06:59;14.60;99.90
32476;DHT22;18929;48.008;10.882;2023-05-02T13:09:26;14.60;99.90
32476;DHT22;18929;48.008;10.882;2023-05-02T13:11:53;14.10;99.90
32476;DHT22;18929;48.008;10.882;2023-05-02T13:14:19;13.50;99.90
32476;DHT22;18929;48.008;10.882;2023-05-02T13:16:47;13.00;99.90
32476;DHT22;18929;48.008;10.882;2023-05-02T13:19:16;13.00;99.90
32476;DHT22;18929;48.008;10.882;2023-05-02T13:21:42;13.60;99.90
32476;DHT22;18929;48.008;10.882;2023-05-02T13:24:09;14.20;99.90
32476;DHT22;18929;48.008;10.882;2023-05-02T13:26:36;14.50;99.90
32476;DHT22;18929;48.008;10.882;2023-05-02T13:29:03;13.90;99.90
32476;DHT22;18929;48.008;10.882;2023-05-02T13:31:30;13.80;99.90
32476;DHT22;18929;48.008;10.882;2023-05-02T13:33:57;13.50;99.90
32476;DHT22;18929;48.008;10.882;2023-05-02T13:36:25;13.70;99.90
32476;DHT22;18929;48.008;10.882;2023-05-02T13:38:52;14.10;99.90
32476;DHT22;18929;48.008;10.882;2023-05-02T13:41:18;13.90;99.90
32476;DHT22;18929;48.008;10.882;2023-05-02T13:43:45;14.10;99.90
32476;DHT22;18929;48.008;10.882;2023-05-02T13:46:12;14.20;99.90
32476;DHT22;18929;48.008;10.882;2023-05-02T13:48:39;14.20;99.90
32476;DHT22;18929;48.008;10.882;2023-05-02T13:51:06;14.30;99.90
32476;DHT22;18929;48.008;10.882;2023-05-02T13:53:34;14.30;99.90
32476;DHT22;18929;48.008;10.882;2023-05-02T13:56:01;14.50;99.90
32476;DHT22;18929;48.008;10.882;2023-05-02T13:58:28;14.10;99.90
32476;DHT22;18929;48.008;10.882;2023-05-02T14:00:55;14.10;99.90
32476;DHT22;18929;48.008;10.882;2023-05-02T14:03:22;14.40;99.90
32476;DHT22;18929;48.008;10.882;2023-05-02T14:05:49;14.60;99.90
32476;DHT22;18929;48.008;10.882;2023-05-02T14:08:16;14.90;99.90
32476;DHT22;18929;48.008;10.882;2023-05-02T14:10:45;14.40;99.90
32476;DHT22;18929;48.008;10.882;2023-05-02T14:13:11;14.40;99.90
32476;DHT22;18929;48.008;10.882;2023-05-02T14:15:38;14.60;99.90
32476;DHT22;18929;48.008;10.882;2023-05-02T14:18:05;14.60;99.90
32476;DHT22;18929;48.008;10.882;2023-05-02T14:20:32;14.70;99.90
32476;DHT22;18929;48.008;10.882;2023-05-02T14:22:59;14.70;99.90
32476;DHT22;18929;48.008;10.882;2023-05-02T14:25:25;14.50;99.90
32476;DHT22;18929;48.008;10.882;2023-05-02T14:27:53;14.50;99.90
32476;DHT22;18929;48.008;10.882;2023-05-02T14:30:20;14.50;99.90
32476;DHT22;18929;48.008;10.882;2023-05-02T14:32:47;14.60;99.90
32476;DHT22;18929;48.008;10.882;2023-05-02T14:35:14;14.70;99.90
32476;DHT22;18929;48.008;10.882;2023-05-02T14:37:41;15.00;99.90
32476;DHT22;18929;48.008;10.882;2023-05-02T14:40:09;15.10;99.90
32476;DHT22;18929;48.008;10.882;2023-05-02T14:42:38;14.90;99.90
32476;DHT22;18929;48.008;10.882;2023-05-02T14:45:07;15.00;99.90
32476;DHT22;18929;48.008;10.882;2023-05-02T14:47:34;15.00;99.90
32476;DHT22;18929;48.008;10.882;2023-05-02T14:50:01;15.00;99.90
32476;DHT22;18929;48.008;10.882;2023-05-02T14:52:28;14.80;99.90
32476;DHT22;18929;48.008;10.882;2023-05-02T14:54:57;14.00;99.90
32476;DHT22;18929;48.008;10.882;2023-05-02T14:57:24;13.90;99.90
32476;DHT22;18929;48.008;10.882;2023-05-02T14:59:51;14.10;99.90
32476;DHT22;18929;48.008;10.882;2023-05-02T15:02:20;13.90;99.90
32476;DHT22;18929;48.008;10.882;2023-05-02T15:04:47;14.30;99.90
32476;DHT22;18929;48.008;10.882;2023-05-02T15:07:13;14.30;99.90
32476;DHT22;18929;48.008;10.882;2023-05-02T15:09:40;14.10;99.90
32476;DHT22;18929;48.008;10.882;2023-05-02T15:12:07;14.10;99.90
32476;DHT22;18929;48.008;10.882;2023-05-02T15:14:34;14.00;99.90
32476;DHT22;18929;48.008;10.882;2023-05-02T15:17:01;13.50;99.90
32476;DHT22;18929;48.008;10.882;2023-05-02T15:19:29;13.70;99.90
32476;DHT22;18929;48.008;10.882;2023-05-02T15:21:55;13.70;99.90
32476;DHT22;18929;48.008;10.882;2023-05-02T15:24:22;13.20;99.90
32476;DHT22;18929;48.008;10.882;2023-05-02T15:26:50;13.70;99.90
32476;DHT22;18929;48.008;10.882;2023-05-02T15:29:17;13.60;99.90
32476;DHT22;18929;48.008;10.882;2023-05-02T15:31:43;13.80;99.90
32476;DHT22;18929;48.008;10.882;2023-05-02T15:34:10;12.90;99.90
32476;DHT22;18929;48.008;10.882;2023-05-02T15:36:39;13.40;99.90
32476;DHT22;18929;48.008;10.882;2023-05-02T15:39:07;12.80;99.90
32476;DHT22;18929;48.008;10.882;2023-05-02T15:41:34;12.50;99.90
32476;DHT22;18929;48.008;10.882;2023-05-02T15:44:01;12.50;99.90
32476;DHT22;18929;48.008;10.882;2023-05-02T15:46:27;12.30;99.90
32476;DHT22;18929;48.008;10.882;2023-05-02T15:48:54;12.80;99.90
32476;DHT22;18929;48.008;10.882;2023-05-02T15:51:21;13.20;99.90
32476;DHT22;18929;48.008;10.882;2023-05-02T15:53:49;13.00;99.90
32476;DHT22;18929;48.008;10.882;2023-05-02T15:56:16;12.90;99.90
32476;DHT22;18929;48.008;10.882;2023-05-02T15:58:45;13.00;99.90
32476;DHT22;18929;48.008;10.882;2023-05-02T16:01:12;12.90;99.90
32476;DHT22;18929;48.008;10.882;2023-05-02T16:03:39;13.00;99.90
32476;DHT22;18929;48.008;10.882;2023-05-02T16:06:06;12.90;99.90
32476;DHT22;18929;48.008;10.882;2023-05-02T16:08:33;13.00;99.90
32476;DHT22;18929;48.008;10.882;2023-05-02T16:11:01;13.80;99.90
32476;DHT22;18929;48.008;10.882;2023-05-02T16:13:28;14.20;99.90
32476;DHT22;18929;48.008;10.882;2023-05-02T16:15:55;14.20;99.90
32476;DHT22;18929;48.008;10.882;2023-05-02T16:18:22;14.70;99.90
32476;DHT22;18929;48.008;10.882;2023-05-02T16:20:53;14.60;99.90
32476;DHT22;18929;48.008;10.882;2023-05-02T16:23:20;14.60;99.90
32476;DHT22;18929;48.008;10.882;2023-05-02T16:25:47;14.50;99.90
32476;DHT22;18929;48.008;10.882;2023-05-02T16:28:16;14.60;99.90
32476;DHT22;18929;48.008;10.882;2023-05-02T16:30:43;14.50;99.90
32476;DHT22;18929;48.008;10.882;2023-05-02T16:33:09;14.50;99.90
32476;DHT22;18929;48.008;10.882;2023-05-02T16:35:36;14.40;99.90
32476;DHT22;18929;48.008;10.882;2023-05-02T16:38:03;14.30;99.90
32476;DHT22;18929;48.008;10.882;2023-05-02T16:40:30;14.30;99.90
32476;DHT22;18929;48.008;10.882;2023-05-02T16:42:57;14.20;99.90
32476;DHT22;18929;48.008;10.882;2023-05-02T16:45:25;14.30;99.90
32476;DHT22;18929;48.008;10.882;2023-05-02T16:47:52;14.40;99.90
32476;DHT22;18929;48.008;10.882;2023-05-02T16:50:19;14.00;99.90
32476;DHT22;18929;48.008;10.882;2023-05-02T16:52:46;13.90;99.90
32476;DHT22;18929;48.008;10.882;2023-05-02T16:55:13;13.40;99.90
32476;DHT22;18929;48.008;10.882;2023-05-02T16:57:40;11.60;99.90
32476;DHT22;18929;48.008;10.882;2023-05-02T17:00:07;11.40;99.90
32476;DHT22;18929;48.008;10.882;2023-05-02T17:02:40;11.40;99.90
32476;DHT22;18929;48.008;10.882;2023-05-02T17:05:07;11.00;99.90
32476;DHT22;18929;48.008;10.882;2023-05-02T17:07:38;11.10;99.90
32476;DHT22;18929;48.008;10.882;2023-05-02T17:10:06;11.30;99.90
32476;DHT22;18929;48.008;10.882;2023-05-02T17:12:33;11.50;99.90
32476;DHT22;18929;48.008;10.882;2023-05-02T17:14:59;11.60;99.90
32476;DHT22;18929;48.008;10.882;2023-05-02T17:17:26;11.90;99.90
32476;DHT22;18929;48.008;10.882;2023-05-02T17:19:54;11.60;99.90
32476;DHT22;18929;48.008;10.882;2023-05-02T17:22:21;11.60;99.90
32476;DHT22;18929;48.008;10.882;2023-05-02T17:24:48;11.80;99.90
32476;DHT22;18929;48.008;10.882;2023-05-02T17:27:17;12.70;99.90
32476;DHT22;18929;48.008;10.882;2023-05-02T17:29:44;13.20;99.90
32476;DHT22;18929;48.008;10.882;2023-05-02T17:32:10;13.20;99.90
32476;DHT22;18929;48.008;10.882;2023-05-02T17:34:40;13.30;99.90
32476;DHT22;18929;48.008;10.882;2023-05-02T17:37:08;12.90;99.90
32476;DHT22;18929;48.008;10.882;2023-05-02T17:39:35;12.90;99.90
32476;DHT22;18929;48.008;10.882;2023-05-02T17:42:02;12.90;99.90
32476;DHT22;18929;48.008;10.882;2023-05-02T17:44:29;12.80;99.90
32476;DHT22;18929;48.008;10.882;2023-05-02T17:46:56;13.10;99.90
32476;DHT22;18929;48.008;10.882;2023-05-02T17:49:22;13.00;99.90
32476;DHT22;18929;48.008;10.882;2023-05-02T17:51:50;13.50;99.90
32476;DHT22;18929;48.008;10.882;2023-05-02T17:54:18;13.80;99.90
32476;DHT22;18929;48.008;10.882;2023-05-02T17:56:46;14.10;99.90
32476;DHT22;18929;48.008;10.882;2023-05-02T17:59:15;14.30;99.90
32476;DHT22;18929;48.008;10.882;2023-05-02T18:01:43;14.20;99.90
32476;DHT22;18929;48.008;10.882;2023-05-02T18:04:10;14.00;99.90
32476;DHT22;18929;48.008;10.882;2023-05-02T18:06:39;14.00;99.90
32476;DHT22;18929;48.008;10.882;2023-05-02T18:09:05;13.70;99.90
32476;DHT22;18929;48.008;10.882;2023-05-02T18:11:34;13.20;99.90
32476;DHT22;18929;48.008;10.882;2023-05-02T18:14:02;13.30;99.90
32476;DHT22;18929;48.008;10.882;2023-05-02T18:16:30;13.60;99.90
32476;DHT22;18929;48.008;10.882;2023-05-02T18:18:58;13.70;99.90
32476;DHT22;18929;48.008;10.882;2023-05-02T18:21:25;13.80;99.90
32476;DHT22;18929;48.008;10.882;2023-05-02T18:23:52;13.70;99.90
32476;DHT22;18929;48.008;10.882;2023-05-02T18:26:19;13.70;99.90
32476;DHT22;18929;48.008;10.882;2023-05-02T18:28:47;13.10;99.90
32476;DHT22;18929;48.008;10.882;2023-05-02T18:31:18;13.60;99.90
32476;DHT22;18929;48.008;10.882;2023-05-02T18:33:45;13.90;99.90
32476;DHT22;18929;48.008;10.882;2023-05-02T18:36:12;13.90;99.90
32476;DHT22;18929;48.008;10.882;2023-05-02T18:38:39;13.80;99.90
32476;DHT22;18929;48.008;10.882;2023-05-02T18:41:06;13.70;99.90
32476;DHT22;18929;48.008;10.882;2023-05-02T18:43:34;13.70;99.90
32476;DHT22;18929;48.008;10.882;2023-05-02T18:46:02;13.80;99.90
32476;DHT22;18929;48.008;10.882;2023-05-02T18:48:31;13.80;99.90
32476;DHT22;18929;48.008;10.882;2023-05-02T18:50:57;13.90;99.90
32476;DHT22;18929;48.008;10.882;2023-05-02T18:55:55;14.00;99.90
32476;DHT22;18929;48.008;10.882;2023-05-02T18:58:22;14.00;99.90
32476;DHT22;18929;48.008;10.882;2023-05-02T19:00:52;12.90;99.90
32476;DHT22;18929;48.008;10.882;2023-05-02T19:03:21;12.90;99.90
32476;DHT22;18929;48.008;10.882;2023-05-02T19:05:48;13.30;99.90
32476;DHT22;18929;48.008;10.882;2023-05-02T19:08:15;12.90;99.90
32476;DHT22;18929;48.008;10.882;2023-05-02T19:10:42;12.80;99.90
32476;DHT22;18929;48.008;10.882;2023-05-02T19:13:09;12.80;99.90
32476;DHT22;18929;48.008;10.882;2023-05-02T19:15:42;12.00;99.90
32476;DHT22;18929;48.008;10.882;2023-05-02T19:18:08;11.80;99.90
32476;DHT22;18929;48.008;10.882;2023-05-02T19:20:37;11.80;99.90
32476;DHT22;18929;48.008;10.882;2023-05-02T19:23:04;11.60;99.90
32476;DHT22;18929;48.008;10.882;2023-05-02T19:25:30;12.10;99.90
32476;DHT22;18929;48.008;10.882;2023-05-02T19:27:58;12.80;99.90
32476;DHT22;18929;48.008;10.882;2023-05-02T19:30:24;13.10;99.90
32476;DHT22;18929;48.008;10.882;2023-05-02T19:32:51;12.70;99.90
32476;DHT22;18929;48.008;10.882;2023-05-02T19:35:18;13.20;99.90
32476;DHT22;18929;48.008;10.882;2023-05-02T19:37:46;13.40;99.90
32476;DHT22;18929;48.008;10.882;2023-05-02T19:40:13;13.50;99.90
32476;DHT22;18929;48.008;10.882;2023-05-02T19:42:40;13.60;99.90
32476;DHT22;18929;48.008;10.882;2023-05-02T19:45:07;13.60;99.90
32476;DHT22;18929;48.008;10.882;2023-05-02T19:47:52;13.50;99.90
32476;DHT22;18929;48.008;10.882;2023-05-02T19:50:19;13.30;99.90
32476;DHT22;18929;48.008;10.882;2023-05-02T19:52:47;13.50;99.90
32476;DHT22;18929;48.008;10.882;2023-05-02T19:55:15;13.60;99.90
32476;DHT22;18929;48.008;10.882;2023-05-02T19:57:42;13.40;99.90
32476;DHT22;18929;48.008;10.882;2023-05-02T20:00:10;13.20;99.90
32476;DHT22;18929;48.008;10.882;2023-05-02T20:02:39;13.30;99.90
32476;DHT22;18929;48.008;10.882;2023-05-02T20:05:06;13.10;99.90
32476;DHT22;18929;48.008;10.882;2023-05-02T20:07:33;13.00;99.90
32476;DHT22;18929;48.008;10.882;2023-05-02T20:10:01;13.20;99.90
32476;DHT22;18929;48.008;10.882;2023-05-02T20:12:28;13.20;99.90
32476;DHT22;18929;48.008;10.882;2023-05-02T20:14:55;12.70;99.90
32476;DHT22;18929;48.008;10.882;2023-05-02T20:17:22;12.70;99.90
32476;DHT22;18929;48.008;10.882;2023-05-02T20:19:49;12.90;99.90
32476;DHT22;18929;48.008;10.882;2023-05-02T20:22:16;12.80;99.90
32476;DHT22;18929;48.008;10.882;2023-05-02T20:24:43;12.80;99.90
32476;DHT22;18929;48.008;10.882;2023-05-02T20:27:11;12.00;99.90
32476;DHT22;18929;48.008;10.882;2023-05-02T20:29:38;12.60;99.90